sensor_id;sensor_type;location;lat;lon;timestamp;temperature;humidity
11204;DHT22;5659;49.408;11.116;2022-11-18T00:21:35;7.10;99.90
11204;DHT22;5659;49.408;11.116;2022-11-18T00:24:00;7.10;99.90
11204;DHT22;5659;49.408;11.116;2022-11-18T00:26:26;6.90;99.90
11204;DHT22;5659;49.408;11.116;2022-11-18T00:28:52;7.10;99.90
11204;DHT22;5659;49.408;11.116;2022-11-18T00:31:17;6.60;99.90
11204;DHT22;5659;49.408;11.116;2022-11-18T00:33:43;6.50;99.90
11204;DHT22;5659;49.408;11.116;2022-11-18T00:36:10;7.40;99.90
11204;DHT22;5659;49.408;11.116;2022-11-18T00:38:36;6.50;99.90
11204;DHT22;5659;49.408;11.116;2022-11-18T00:41:04;6.60;99.90
11204;DHT22;5659;49.408;11.116;2022-11-18T00:43:30;6.80;99.90
11204;DHT22;5659;49.408;11.116;2022-11-18T00:45:56;6.60;99.90
11204;DHT22;5659;49.408;11.116;2022-11-18T00:48:21;6.60;99.90
11204;DHT22;5659;49.408;11.116;2022-11-18T00:50:51;6.60;99.90
11204;DHT22;5659;49.408;11.116;2022-11-18T00:53:18;6.70;99.90
11204;DHT22;5659;49.408;11.116;2022-11-18T10:57:30;7.20;99.90
11204;DHT22;5659;49.408;11.116;2022-11-18T11:20:16;7.60;99.90
11204;DHT22;5659;49.408;11.116;2022-11-18T11:22:43;7.70;99.90
11204;DHT22;5659;49.408;11.116;2022-11-18T11:27:42;7.40;99.90
11204;DHT22;5659;49.408;11.116;2022-11-18T11:30:19;7.30;99.90
11204;DHT22;5659;49.408;11.116;2022-11-18T11:37:50;7.30;99.90
11204;DHT22;5659;49.408;11.116;2022-11-18T12:14:25;7.60;99.90
11204;DHT22;5659;49.408;11.116;2022-11-18T12:26:46;7.50;99.90
11204;DHT22;5659;49.408;11.116;2022-11-18T12:32:13;7.60;99.90
11204;DHT22;5659;49.408;11.116;2022-11-18T12:35:33;7.70;99.90
11204;DHT22;5659;49.408;11.116;2022-11-18T12:42:59;7.60;99.90
11204;DHT22;5659;49.408;11.116;2022-11-18T12:48:30;7.70;99.90
11204;DHT22;5659;49.408;11.116;2022-11-18T12:56:11;7.80;99.90
11204;DHT22;5659;49.408;11.116;2022-11-18T13:03:37;7.60;99.90
11204;DHT22;5659;49.408;11.116;2022-11-18T13:06:14;7.50;99.90
11204;DHT22;5659;49.408;11.116;2022-11-18T13:08:43;7.60;99.90
11204;DHT22;5659;49.408;11.116;2022-11-18T13:11:16;7.60;99.90
11204;DHT22;5659;49.408;11.116;2022-11-18T13:14:03;7.60;99.90
11204;DHT22;5659;49.408;11.116;2022-11-18T13:22:00;8.00;99.90
11204;DHT22;5659;49.408;11.116;2022-11-18T13:24:50;8.10;99.90
11204;DHT22;5659;49.408;11.116;2022-11-18T13:27:27;7.80;99.90
11204;DHT22;5659;49.408;11.116;2022-11-18T13:44:56;7.90;99.90
11204;DHT22;5659;49.408;11.116;2022-11-18T13:57:52;7.60;99.90
11204;DHT22;5659;49.408;11.116;2022-11-18T14:00:22;7.90;99.90
11204;DHT22;5659;49.408;11.116;2022-11-18T14:02:56;7.70;99.90
11204;DHT22;5659;49.408;11.116;2022-11-18T14:08:05;7.60;99.90
11204;DHT22;5659;49.408;11.116;2022-11-18T14:10:42;7.70;99.90
11204;DHT22;5659;49.408;11.116;2022-11-18T14:15:41;7.60;99.90
11204;DHT22;5659;49.408;11.116;2022-11-18T14:18:17;7.60;99.90
11204;DHT22;5659;49.408;11.116;2022-11-18T14:20:49;7.50;99.90
11204;DHT22;5659;49.408;11.116;2022-11-18T14:23:16;8.10;99.90
11204;DHT22;5659;49.408;11.116;2022-11-18T14:25:43;7.50;99.90
11204;DHT22;5659;49.408;11.116;2022-11-18T14:28:18;7.60;99.90
11204;DHT22;5659;49.408;11.116;2022-11-18T14:31:01;7.50;99.90
11204;DHT22;5659;49.408;11.116;2022-11-18T14:33:33;7.60;99.90
11204;DHT22;5659;49.408;11.116;2022-11-18T14:36:10;7.60;99.90
11204;DHT22;5659;49.408;11.116;2022-11-18T14:38:42;7.50;99.90
11204;DHT22;5659;49.408;11.116;2022-11-18T14:41:10;7.40;99.90
11204;DHT22;5659;49.408;11.116;2022-11-18T14:43:36;7.40;99.90
11204;DHT22;5659;49.408;11.116;2022-11-18T14:46:05;7.90;99.90
11204;DHT22;5659;49.408;11.116;2022-11-18T14:48:31;7.60;99.90
11204;DHT22;5659;49.408;11.116;2022-11-18T14:50:57;7.50;99.90
11204;DHT22;5659;49.408;11.116;2022-11-18T14:53:23;7.50;99.90
11204;DHT22;5659;49.408;11.116;2022-11-18T14:55:50;7.40;99.90
11204;DHT22;5659;49.408;11.116;2022-11-18T14:58:17;7.40;99.90
11204;DHT22;5659;49.408;11.116;2022-11-18T15:00:45;8.20;99.90
11204;DHT22;5659;49.408;11.116;2022-11-18T15:03:11;7.40;99.90
11204;DHT22;5659;49.408;11.116;2022-11-18T15:05:37;7.50;99.90
11204;DHT22;5659;49.408;11.116;2022-11-18T15:08:02;7.50;99.90
11204;DHT22;5659;49.408;11.116;2022-11-18T15:10:28;7.50;99.90
11204;DHT22;5659;49.408;11.116;2022-11-18T15:12:54;7.40;99.90
11204;DHT22;5659;49.408;11.116;2022-11-18T15:15:19;7.40;99.90
11204;DHT22;5659;49.408;11.116;2022-11-18T15:17:45;7.40;99.90
11204;DHT22;5659;49.408;11.116;2022-11-18T15:20:17;7.60;99.90
11204;DHT22;5659;49.408;11.116;2022-11-18T15:22:43;7.30;99.90
11204;DHT22;5659;49.408;11.116;2022-11-18T15:25:09;7.40;99.90
11204;DHT22;5659;49.408;11.116;2022-11-18T15:27:35;7.40;99.90
11204;DHT22;5659;49.408;11.116;2022-11-18T15:30:01;7.50;99.90
11204;DHT22;5659;49.408;11.116;2022-11-18T15:32:27;7.30;99.90
11204;DHT22;5659;49.408;11.116;2022-11-18T15:34:52;7.30;99.90
11204;DHT22;5659;49.408;11.116;2022-11-18T15:37:18;7.30;99.90
11204;DHT22;5659;49.408;11.116;2022-11-18T15:39:43;7.50;99.90
11204;DHT22;5659;49.408;11.116;2022-11-18T15:42:10;7.30;99.90
11204;DHT22;5659;49.408;11.116;2022-11-18T15:44:35;7.30;99.90
11204;DHT22;5659;49.408;11.116;2022-11-18T15:47:01;7.30;99.90
11204;DHT22;5659;49.408;11.116;2022-11-18T15:49:27;7.40;99.90
11204;DHT22;5659;49.408;11.116;2022-11-18T15:51:53;7.30;99.90
11204;DHT22;5659;49.408;11.116;2022-11-18T15:54:18;7.30;99.90
11204;DHT22;5659;49.408;11.116;2022-11-18T15:56:44;7.30;99.90
11204;DHT22;5659;49.408;11.116;2022-11-18T15:59:13;7.30;99.90
11204;DHT22;5659;49.408;11.116;2022-11-18T16:01:44;7.30;99.90
11204;DHT22;5659;49.408;11.116;2022-11-18T16:04:12;7.40;99.90
11204;DHT22;5659;49.408;11.116;2022-11-18T16:06:38;7.40;99.90
11204;DHT22;5659;49.408;11.116;2022-11-18T16:09:05;7.40;99.90
11204;DHT22;5659;49.408;11.116;2022-11-18T16:11:31;7.30;99.90
11204;DHT22;5659;49.408;11.116;2022-11-18T16:14:17;7.20;99.90
11204;DHT22;5659;49.408;11.116;2022-11-18T16:16:44;7.20;99.90
11204;DHT22;5659;49.408;11.116;2022-11-18T16:19:12;7.10;99.90
11204;DHT22;5659;49.408;11.116;2022-11-18T16:21:40;7.20;99.90
11204;DHT22;5659;49.408;11.116;2022-11-18T16:24:09;7.50;99.90
11204;DHT22;5659;49.408;11.116;2022-11-18T16:26:35;7.30;99.90
11204;DHT22;5659;49.408;11.116;2022-11-18T16:29:05;7.20;99.90
11204;DHT22;5659;49.408;11.116;2022-11-18T16:31:30;7.20;99.90
11204;DHT22;5659;49.408;11.116;2022-11-18T16:34:16;7.20;99.90
11204;DHT22;5659;49.408;11.116;2022-11-18T16:36:44;7.30;99.90
11204;DHT22;5659;49.408;11.116;2022-11-18T16:39:15;7.30;99.90
11204;DHT22;5659;49.408;11.116;2022-11-18T16:41:42;7.30;99.90
11204;DHT22;5659;49.408;11.116;2022-11-18T16:44:10;7.20;99.90
11204;DHT22;5659;49.408;11.116;2022-11-18T16:46:38;7.10;99.90
11204;DHT22;5659;49.408;11.116;2022-11-18T16:49:05;7.20;99.90
11204;DHT22;5659;49.408;11.116;2022-11-18T16:51:33;7.20;99.90
11204;DHT22;5659;49.408;11.116;2022-11-18T16:54:01;7.10;99.90
11204;DHT22;5659;49.408;11.116;2022-11-18T16:56:29;7.10;99.90
11204;DHT22;5659;49.408;11.116;2022-11-18T16:59:09;7.20;99.90
11204;DHT22;5659;49.408;11.116;2022-11-18T17:01:35;7.30;99.90
11204;DHT22;5659;49.408;11.116;2022-11-18T17:04:00;7.20;99.90
11204;DHT22;5659;49.408;11.116;2022-11-18T17:06:27;7.20;99.90
11204;DHT22;5659;49.408;11.116;2022-11-18T17:08:54;7.30;99.90
11204;DHT22;5659;49.408;11.116;2022-11-18T17:11:19;7.20;99.90
11204;DHT22;5659;49.408;11.116;2022-11-18T17:13:45;7.30;99.90
11204;DHT22;5659;49.408;11.116;2022-11-18T17:16:13;7.30;99.90
11204;DHT22;5659;49.408;11.116;2022-11-18T17:18:40;7.20;99.90
11204;DHT22;5659;49.408;11.116;2022-11-18T17:21:08;7.20;99.90
11204;DHT22;5659;49.408;11.116;2022-11-18T17:23:35;7.20;99.90
11204;DHT22;5659;49.408;11.116;2022-11-18T17:26:01;7.20;99.90
11204;DHT22;5659;49.408;11.116;2022-11-18T17:28:32;7.20;99.90
11204;DHT22;5659;49.408;11.116;2022-11-18T17:31:06;7.20;99.90
11204;DHT22;5659;49.408;11.116;2022-11-18T17:33:32;7.20;99.90
11204;DHT22;5659;49.408;11.116;2022-11-18T17:38:29;7.30;99.90
11204;DHT22;5659;49.408;11.116;2022-11-18T17:48:15;7.50;99.90
11204;DHT22;5659;49.408;11.116;2022-11-18T17:53:07;7.50;99.90
11204;DHT22;5659;49.408;11.116;2022-11-18T17:55:32;7.50;99.90
11204;DHT22;5659;49.408;11.116;2022-11-18T17:57:58;7.30;99.90
11204;DHT22;5659;49.408;11.116;2022-11-18T18:00:23;7.20;99.90
11204;DHT22;5659;49.408;11.116;2022-11-18T18:02:49;7.20;99.90
11204;DHT22;5659;49.408;11.116;2022-11-18T18:05:15;7.50;99.90
11204;DHT22;5659;49.408;11.116;2022-11-18T18:07:40;7.30;99.90
11204;DHT22;5659;49.408;11.116;2022-11-18T18:10:06;7.30;99.90
11204;DHT22;5659;49.408;11.116;2022-11-18T18:12:34;7.30;99.90
11204;DHT22;5659;49.408;11.116;2022-11-18T18:15:18;7.30;99.90
11204;DHT22;5659;49.408;11.116;2022-11-18T18:17:45;7.30;99.90
11204;DHT22;5659;49.408;11.116;2022-11-18T18:20:12;7.30;99.90
11204;DHT22;5659;49.408;11.116;2022-11-18T18:22:37;7.30;99.90
11204;DHT22;5659;49.408;11.116;2022-11-18T18:25:03;7.10;99.90
11204;DHT22;5659;49.408;11.116;2022-11-18T18:27:30;7.20;99.90
11204;DHT22;5659;49.408;11.116;2022-11-18T18:29:55;7.50;99.90
11204;DHT22;5659;49.408;11.116;2022-11-18T18:32:21;6.90;99.90
11204;DHT22;5659;49.408;11.116;2022-11-18T18:34:47;7.10;99.90
11204;DHT22;5659;49.408;11.116;2022-11-18T18:37:12;7.00;99.90
11204;DHT22;5659;49.408;11.116;2022-11-18T18:39:38;7.00;99.90
11204;DHT22;5659;49.408;11.116;2022-11-18T18:42:03;7.00;99.90
11204;DHT22;5659;49.408;11.116;2022-11-18T18:44:29;7.50;99.90
11204;DHT22;5659;49.408;11.116;2022-11-18T18:47:14;7.00;99.90
11204;DHT22;5659;49.408;11.116;2022-11-18T18:49:40;7.10;99.90
11204;DHT22;5659;49.408;11.116;2022-11-18T18:52:06;7.10;99.90
11204;DHT22;5659;49.408;11.116;2022-11-18T18:56:57;7.20;99.90
11204;DHT22;5659;49.408;11.116;2022-11-18T19:04:15;7.00;99.90
11204;DHT22;5659;49.408;11.116;2022-11-18T19:26:35;7.10;99.90
11204;DHT22;5659;49.408;11.116;2022-11-18T19:29:01;6.90;99.90
11204;DHT22;5659;49.408;11.116;2022-11-18T19:36:19;7.00;99.90
11204;DHT22;5659;49.408;11.116;2022-11-18T19:38:44;6.80;99.90
11204;DHT22;5659;49.408;11.116;2022-11-18T19:41:13;6.80;99.90
11204;DHT22;5659;49.408;11.116;2022-11-18T19:48:31;7.00;99.90
11204;DHT22;5659;49.408;11.116;2022-11-18T19:51:05;6.80;99.90
11204;DHT22;5659;49.408;11.116;2022-11-18T19:53:33;6.90;99.90
11204;DHT22;5659;49.408;11.116;2022-11-18T19:56:12;6.60;99.90
11204;DHT22;5659;49.408;11.116;2022-11-18T19:58:40;6.70;99.90
11204;DHT22;5659;49.408;11.116;2022-11-18T20:01:14;6.60;99.90
11204;DHT22;5659;49.408;11.116;2022-11-18T20:03:47;6.70;99.90
11204;DHT22;5659;49.408;11.116;2022-11-18T20:13:35;6.80;99.90
11204;DHT22;5659;49.408;11.116;2022-11-18T20:16:03;6.70;99.90
11204;DHT22;5659;49.408;11.116;2022-11-18T20:18:29;6.70;99.90
11204;DHT22;5659;49.408;11.116;2022-11-18T20:20:56;6.50;99.90
11204;DHT22;5659;49.408;11.116;2022-11-18T20:23:26;6.60;99.90
11204;DHT22;5659;49.408;11.116;2022-11-18T20:25:51;7.00;99.90
11204;DHT22;5659;49.408;11.116;2022-11-18T20:28:17;6.50;99.90
11204;DHT22;5659;49.408;11.116;2022-11-18T20:33:10;6.50;99.90
11204;DHT22;5659;49.408;11.116;2022-11-18T20:35:35;6.50;99.90
11204;DHT22;5659;49.408;11.116;2022-11-18T20:38:01;6.60;99.90
11204;DHT22;5659;49.408;11.116;2022-11-18T20:40:26;6.50;99.90
11204;DHT22;5659;49.408;11.116;2022-11-18T20:42:52;6.40;99.90
11204;DHT22;5659;49.408;11.116;2022-11-18T20:45:37;6.40;99.90
11204;DHT22;5659;49.408;11.116;2022-11-18T20:57:48;6.50;99.90
11204;DHT22;5659;49.408;11.116;2022-11-18T21:00:14;6.50;99.90
11204;DHT22;5659;49.408;11.116;2022-11-18T21:19:42;6.60;99.90
11204;DHT22;5659;49.408;11.116;2022-11-18T21:22:08;6.50;99.90
11204;DHT22;5659;49.408;11.116;2022-11-18T21:24:34;6.50;99.90
11204;DHT22;5659;49.408;11.116;2022-11-18T21:39:12;6.00;99.90
11204;DHT22;5659;49.408;11.116;2022-11-18T21:41:39;5.80;99.90
11204;DHT22;5659;49.408;11.116;2022-11-18T21:44:08;5.50;99.90
11204;DHT22;5659;49.408;11.116;2022-11-18T21:46:35;5.30;99.90
11204;DHT22;5659;49.408;11.116;2022-11-18T21:49:02;5.00;99.90
11204;DHT22;5659;49.408;11.116;2022-11-18T21:51:28;5.00;99.90
11204;DHT22;5659;49.408;11.116;2022-11-18T21:53:55;4.90;99.90
11204;DHT22;5659;49.408;11.116;2022-11-18T21:56:22;4.80;99.90
11204;DHT22;5659;49.408;11.116;2022-11-18T21:58:50;4.70;99.90
11204;DHT22;5659;49.408;11.116;2022-11-18T22:03:56;5.00;99.90
11204;DHT22;5659;49.408;11.116;2022-11-18T22:08:49;4.80;99.90
11204;DHT22;5659;49.408;11.116;2022-11-18T22:11:15;4.70;99.90
11204;DHT22;5659;49.408;11.116;2022-11-18T22:13:41;4.40;99.90
11204;DHT22;5659;49.408;11.116;2022-11-18T22:16:16;4.30;99.90
11204;DHT22;5659;49.408;11.116;2022-11-18T22:18:43;4.20;99.90
11204;DHT22;5659;49.408;11.116;2022-11-18T22:21:14;4.20;99.90
11204;DHT22;5659;49.408;11.116;2022-11-18T22:23:41;5.20;99.90
11204;DHT22;5659;49.408;11.116;2022-11-18T22:26:10;4.20;99.90
11204;DHT22;5659;49.408;11.116;2022-11-18T22:28:36;4.20;99.90
11204;DHT22;5659;49.408;11.116;2022-11-18T22:36:04;4.30;99.90
11204;DHT22;5659;49.408;11.116;2022-11-18T22:38:30;4.20;99.90
11204;DHT22;5659;49.408;11.116;2022-11-18T22:41:00;4.00;99.90
11204;DHT22;5659;49.408;11.116;2022-11-18T22:43:26;4.10;99.90
11204;DHT22;5659;49.408;11.116;2022-11-18T23:27:51;4.10;99.90
11204;DHT22;5659;49.408;11.116;2022-11-18T23:30:17;3.80;99.90
11204;DHT22;5659;49.408;11.116;2022-11-18T23:32:42;3.60;99.90
